Alpha, Michigan
Current Conditions -  °F | °C
As of 9:41 AM on Friday 24 Oct 2014 (Local Time) from KIMT Reporting Station
Haze Haze  
Wind Chill: 43°   Ceiling: 100
Heat Index: 43°   Visibility: 1.5mi
Dew Point: 42°   Wind: 3mph
Humidity: 97%   Direction: 200°SSW
Pressure: 29.98"   Gusts: NA
Location:  46.04°N, 88.38°W
Report Text: KIMT 241441Z AUTO 20003KT 1 1/2SM BR OVC001 06/06 A2998 RMK AO2 VIS 1V3 T00610056
Loading
Personal Weather Stations






























Interactive Weather Map
Tropical Storm Tracking
New forecast layout! Learn more

10-Day Weather Forecast

Advertisements
Track Severe Weather on mobile